createdAt,value
2019-02-15T00:03:08.677Z,4.47
2019-02-15T00:08:38.013Z,5.00
2019-02-15T00:14:07.358Z,4.90
2019-02-15T00:19:38.337Z,5.03
2019-02-15T00:25:07.849Z,4.60
2019-02-15T00:30:37.317Z,4.20
2019-02-15T00:36:06.795Z,4.07
2019-02-15T00:41:36.539Z,5.10
2019-02-15T00:47:07.591Z,4.03
2019-02-15T00:52:47.831Z,4.03
2019-02-15T00:58:22.006Z,4.80
2019-02-15T01:03:53.198Z,4.80
2019-02-15T01:09:27.520Z,4.47
2019-02-15T01:14:57.333Z,3.83
2019-02-15T01:20:27.371Z,3.80
2019-02-15T01:25:59.060Z,3.77
2019-02-15T01:31:46.511Z,2.97
2019-02-15T01:37:26.778Z,4.60
2019-02-15T01:43:09.692Z,3.60
2019-02-15T01:48:39.106Z,2.87
2019-02-15T01:54:08.446Z,3.53
2019-02-15T01:59:37.783Z,2.90
2019-02-15T02:05:07.866Z,3.37
2019-02-15T02:10:37.234Z,3.27
2019-02-15T02:16:06.560Z,3.70
2019-02-15T02:21:35.993Z,2.50
2019-02-15T02:27:05.419Z,2.87
2019-02-15T02:32:35.146Z,2.90
2019-02-15T02:38:04.672Z,3.10
2019-02-15T02:43:34.381Z,3.30
2019-02-15T02:49:04.001Z,3.27
2019-02-15T02:54:33.637Z,3.30
2019-02-15T03:00:03.118Z,3.23
2019-02-15T03:05:32.841Z,3.27
2019-02-15T03:11:02.620Z,2.93
2019-02-15T03:16:32.344Z,3.20
2019-02-15T03:22:02.278Z,3.03
2019-02-15T03:27:32.113Z,3.10
2019-02-15T03:33:01.849Z,3.23
2019-02-15T03:38:33.432Z,3.60
2019-02-15T03:44:02.914Z,3.00
2019-02-15T03:49:32.452Z,3.20
2019-02-15T03:55:02.189Z,3.70
2019-02-15T04:00:32.705Z,4.47
2019-02-15T04:06:02.818Z,4.43
2019-02-15T04:11:32.402Z,5.87
2019-02-15T04:17:02.126Z,6.03
2019-02-15T04:22:32.065Z,6.83
2019-02-15T04:28:03.021Z,7.30
2019-02-15T04:33:32.950Z,7.07
2019-02-15T04:39:02.752Z,7.50
2019-02-15T04:44:42.366Z,8.20
2019-02-15T04:50:03.753Z,8.10
2019-02-15T04:55:33.220Z,8.07
2019-02-15T05:01:02.933Z,7.40
2019-02-15T05:06:32.425Z,7.37
2019-02-15T05:12:02.311Z,6.73
2019-02-15T05:17:32.217Z,8.17
2019-02-15T05:23:03.602Z,8.77
2019-02-15T05:28:33.128Z,8.20
2019-02-15T05:34:08.312Z,8.80
2019-02-15T05:39:37.658Z,8.50
2019-02-15T05:45:07.479Z,8.37
2019-02-15T05:50:36.895Z,8.40
2019-02-15T05:56:06.303Z,7.23
2019-02-15T06:01:35.966Z,7.87
2019-02-15T06:07:05.296Z,7.13
2019-02-15T06:12:34.756Z,6.43
2019-02-15T06:18:04.579Z,6.47
2019-02-15T06:23:34.049Z,6.83
2019-02-15T06:29:03.684Z,7.30
2019-02-15T06:34:38.564Z,7.87
2019-02-15T06:40:08.362Z,8.50
2019-02-15T06:45:37.730Z,7.53
2019-02-15T06:51:07.200Z,8.00
2019-02-15T06:56:36.574Z,8.40
2019-02-15T07:02:20.050Z,7.67
2019-02-15T07:07:49.372Z,8.63
2019-02-15T07:13:18.729Z,11.77
2019-02-15T07:18:48.051Z,10.20
2019-02-15T07:24:17.403Z,9.37
2019-02-15T07:29:46.897Z,8.97
2019-02-15T07:35:16.226Z,9.43
2019-02-15T07:40:45.549Z,7.70
2019-02-15T07:46:14.994Z,7.30
2019-02-15T07:51:44.307Z,7.63
2019-02-15T07:57:13.613Z,6.60
2019-02-15T08:02:43.010Z,7.60
2019-02-15T08:08:12.385Z,8.50
2019-02-15T08:13:41.752Z,7.80
2019-02-15T08:19:11.077Z,6.70
2019-02-15T08:24:40.421Z,7.17
2019-02-15T08:30:11.664Z,6.77
2019-02-15T08:35:41.037Z,6.60
2019-02-15T08:41:10.354Z,6.10
2019-02-15T08:46:39.758Z,6.30
2019-02-15T08:52:09.204Z,7.00
2019-02-15T08:57:38.511Z,7.10
2019-02-15T09:03:07.830Z,7.83
2019-02-15T09:08:37.224Z,6.47
2019-02-15T09:14:08.657Z,6.77
2019-02-15T09:19:37.977Z,7.50
2019-02-15T09:25:10.280Z,5.30
2019-02-15T09:30:39.586Z,6.60
2019-02-15T09:36:09.024Z,5.73
2019-02-15T09:41:38.321Z,5.00
2019-02-15T09:47:07.700Z,5.03
2019-02-15T09:52:37.169Z,4.77
2019-02-15T09:58:06.640Z,5.00
2019-02-15T10:03:36.112Z,4.97
2019-02-15T10:09:06.544Z,5.20
2019-02-15T10:14:36.371Z,4.70
2019-02-15T10:20:08.017Z,5.00
2019-02-15T10:25:39.428Z,4.40
2019-02-15T10:31:08.883Z,4.70
2019-02-15T10:36:38.383Z,4.80
2019-02-15T10:42:07.970Z,3.90
2019-02-15T10:47:37.363Z,5.10
2019-02-15T10:53:07.130Z,4.67
2019-02-15T10:58:36.550Z,4.10
2019-02-15T11:04:07.389Z,4.30
2019-02-15T11:09:36.746Z,4.17
2019-02-15T11:15:12.847Z,4.50
2019-02-15T11:20:42.310Z,4.50
2019-02-15T11:26:11.713Z,3.77
2019-02-15T11:31:42.079Z,3.90
2019-02-15T11:37:11.421Z,3.53
2019-02-15T11:42:42.867Z,3.83
2019-02-15T11:48:12.183Z,4.10
2019-02-15T11:53:41.517Z,4.07
2019-02-15T11:59:10.835Z,3.57
2019-02-15T12:04:40.255Z,3.67
2019-02-15T12:10:11.727Z,3.17
2019-02-15T12:15:41.058Z,3.50
2019-02-15T12:21:10.609Z,3.30
2019-02-15T12:26:39.955Z,5.00
2019-02-15T12:32:09.381Z,5.90
2019-02-15T12:37:38.914Z,6.80
2019-02-15T12:43:08.251Z,6.40
2019-02-15T12:48:39.446Z,6.40
2019-02-15T12:54:08.920Z,7.47
2019-02-15T12:59:38.287Z,7.20
2019-02-15T13:05:10.304Z,7.30
2019-02-15T13:10:40.642Z,7.50
2019-02-15T13:16:10.053Z,7.00
2019-02-15T13:21:39.427Z,8.17
2019-02-15T13:27:09.817Z,8.10
2019-02-15T13:32:39.327Z,5.80
2019-02-15T13:38:08.662Z,4.30
2019-02-15T13:43:38.217Z,4.03
2019-02-15T13:49:07.641Z,5.50
2019-02-15T13:54:38.559Z,4.03
2019-02-15T14:00:14.547Z,4.53
2019-02-15T14:05:44.377Z,5.10
2019-02-15T14:11:13.761Z,5.40
2019-02-15T14:16:43.121Z,5.37
2019-02-15T14:22:12.463Z,5.80
2019-02-15T14:27:41.895Z,5.03
2019-02-15T14:33:11.263Z,6.23
2019-02-15T14:38:40.751Z,5.80
2019-02-15T14:44:10.085Z,5.63
2019-02-15T14:49:39.454Z,6.33
2019-02-15T14:55:10.582Z,7.07
2019-02-15T15:00:40.079Z,5.80
2019-02-15T15:06:09.406Z,7.40
2019-02-15T15:11:38.795Z,6.20
2019-02-15T15:17:08.244Z,5.93
2019-02-15T15:22:37.617Z,4.90
2019-02-15T15:28:07.030Z,5.43
2019-02-15T15:33:38.304Z,4.50
2019-02-15T15:39:07.826Z,5.30
2019-02-15T15:44:37.244Z,4.30
2019-02-15T15:50:09.475Z,3.93
2019-02-15T15:55:38.924Z,3.47
2019-02-15T16:01:08.321Z,3.63
2019-02-15T16:06:37.672Z,4.80
2019-02-15T16:12:07.091Z,5.43
2019-02-15T16:17:36.632Z,4.70
2019-02-15T16:23:06.245Z,5.70
2019-02-15T16:28:35.751Z,5.50
2019-02-15T16:34:05.081Z,4.77
2019-02-15T16:39:35.368Z,5.20
2019-02-15T16:45:08.681Z,5.33
2019-02-15T16:50:37.987Z,6.00
2019-02-15T16:56:07.396Z,5.97
2019-02-15T17:01:36.922Z,6.30
2019-02-15T17:07:06.392Z,6.80
2019-02-15T17:12:35.712Z,6.63
2019-02-15T17:18:05.106Z,7.07
2019-02-15T17:23:34.566Z,6.60
2019-02-15T17:29:04.284Z,7.77
2019-02-15T17:34:33.710Z,8.60
2019-02-15T17:40:04.019Z,8.73
2019-02-15T17:45:33.370Z,8.37
2019-02-15T17:51:04.081Z,10.50
2019-02-15T17:56:33.607Z,9.67
2019-02-15T18:02:03.722Z,8.83
2019-02-15T18:07:33.043Z,10.07
2019-02-15T18:13:03.268Z,11.13
2019-02-15T18:18:34.089Z,10.20
2019-02-15T18:24:06.899Z,11.77
2019-02-15T18:29:36.278Z,11.07
2019-02-15T18:35:06.175Z,10.80
2019-02-15T18:40:35.672Z,7.90
2019-02-15T18:46:05.127Z,9.20
2019-02-15T18:51:34.663Z,8.30
2019-02-15T18:57:04.148Z,9.83
2019-02-15T19:02:33.530Z,10.87
2019-02-15T19:08:03.425Z,11.87
2019-02-15T19:13:32.936Z,13.23
2019-02-15T19:19:03.340Z,10.87
2019-02-15T19:24:32.879Z,11.70
2019-02-15T19:30:02.328Z,11.30
2019-02-15T19:35:31.727Z,11.90
2019-02-15T19:41:01.148Z,16.00
2019-02-15T19:46:30.624Z,12.97
2019-02-15T19:52:00.470Z,12.33
2019-02-15T19:57:30.054Z,12.60
2019-02-15T20:02:59.573Z,11.40
2019-02-15T20:08:29.085Z,11.30
2019-02-15T20:14:00.044Z,11.07
2019-02-15T20:19:48.203Z,10.70
2019-02-15T20:25:13.148Z,11.50
2019-02-15T20:30:42.955Z,12.63
2019-02-15T20:36:12.405Z,15.60
2019-02-15T20:41:41.719Z,14.27
2019-02-15T20:47:11.080Z,14.17
2019-02-15T20:52:40.535Z,14.53
2019-02-15T20:58:09.875Z,13.27
2019-02-15T21:03:39.294Z,14.53
2019-02-15T21:09:08.803Z,14.20
2019-02-15T21:14:38.158Z,14.03
2019-02-15T21:20:11.201Z,14.60
2019-02-15T21:25:40.556Z,15.63
2019-02-15T21:31:09.877Z,17.13
2019-02-15T21:36:39.368Z,23.83
2019-02-15T21:42:08.853Z,19.67
2019-02-15T21:47:38.193Z,20.50
2019-02-15T21:53:07.589Z,19.60
2019-02-15T21:58:37.026Z,18.70
2019-02-15T22:04:06.620Z,15.23
2019-02-15T22:09:36.099Z,16.17
2019-02-15T22:15:16.229Z,15.73
2019-02-15T22:20:47.650Z,13.77
2019-02-15T22:26:17.996Z,13.70
2019-02-15T22:31:47.402Z,12.90
2019-02-15T22:37:16.750Z,13.20
2019-02-15T22:42:46.158Z,12.33
2019-02-15T22:48:18.553Z,11.00
2019-02-15T22:53:48.061Z,11.77
2019-02-15T22:59:17.367Z,10.93
2019-02-15T23:04:46.715Z,9.10
2019-02-15T23:10:16.331Z,11.47
2019-02-15T23:15:45.704Z,11.47
2019-02-15T23:21:15.116Z,11.13
2019-02-15T23:26:44.453Z,9.73
2019-02-15T23:32:13.829Z,9.77
2019-02-15T23:37:43.248Z,10.17
2019-02-15T23:43:12.596Z,9.37
2019-02-15T23:48:41.930Z,9.93
2019-02-15T23:54:11.238Z,9.13
2019-02-15T23:59:40.546Z,8.80
